Time;durP1;ratioP1;P1;durP2;ratioP2;P2;SDS_P1;SDS_P2;PMS_P1;PMS_P2;Temp;Humidity;BMP_temperature;BMP_pressure;BME280_temperature;BME280_humidity;BME280_pressure;Samples;Min_cycle;Max_cycle;Signal;HPM_P1;HPM_P2
2023/04/08 00:00:03;;;;;;;1.20;1.20;;;;;;;;;;5061348;28;20193;-55
2023/04/08 00:02:29;;;;;;;1.30;1.30;;;;;;;;;;5059694;28;20651;-55
2023/04/08 00:04:54;;;;;;;1.30;1.30;;;;;;;;;;5062801;28;20203;-55
2023/04/08 00:07:20;;;;;;;1.30;1.30;;;;;;;;;;5060115;28;20279;-56
2023/04/08 00:09:46;;;;;;;1.20;1.20;;;;;;;;;;5057496;28;20722;-55
2023/04/08 00:12:12;;;;;;;1.20;1.20;;;;;;;;;;5063996;28;20187;-56
2023/04/08 00:14:40;;;;;;;1.30;1.30;;;;;;;;;;5058785;28;20196;-54
2023/04/08 00:17:06;;;;;;;1.30;1.30;;;;;;;;;;5055492;28;20258;-56
2023/04/08 00:19:32;;;;;;;1.20;1.20;;;;;;;;;;5060870;28;20617;-56
2023/04/08 00:21:58;;;;;;;1.10;1.10;;;;;;;;;;5060943;28;20275;-55
2023/04/08 00:24:24;;;;;;;1.03;1.03;;;;;;;;;;5059378;28;20189;-56
2023/04/08 00:26:51;;;;;;;1.20;1.20;;;;;;;;;;5059959;28;20192;-56
2023/04/08 00:29:17;;;;;;;1.27;1.27;;;;;;;;;;5060800;28;20270;-55
2023/04/08 00:31:43;;;;;;;1.27;1.27;;;;;;;;;;5059012;28;20477;-55
2023/04/08 00:34:09;;;;;;;1.20;1.20;;;;;;;;;;5060271;28;20179;-55
2023/04/08 00:36:35;;;;;;;1.47;1.47;;;;;;;;;;5060614;28;20182;-56
2023/04/08 00:39:03;;;;;;;1.20;1.20;;;;;;;;;;5048368;28;20189;-56
2023/04/08 00:41:29;;;;;;;1.20;1.20;;;;;;;;;;5059473;28;20195;-55
2023/04/08 00:43:55;;;;;;;1.00;1.00;;;;;;;;;;5055869;28;20261;-56
2023/04/08 00:46:21;;;;;;;1.23;1.23;;;;;;;;;;5059042;28;20203;-55
2023/04/08 00:48:47;;;;;;;1.20;1.20;;;;;;;;;;5060781;28;20617;-55
2023/04/08 00:51:13;;;;;;;1.10;1.10;;;;;;;;;;5059098;28;20558;-56
2023/04/08 00:53:39;;;;;;;1.17;1.17;;;;;;;;;;5058631;28;20229;-56
2023/04/08 00:56:05;;;;;;;1.00;1.00;;;;;;;;;;5062940;28;20202;-56
2023/04/08 00:58:31;;;;;;;1.00;1.00;;;;;;;;;;5059028;28;20652;-55
2023/04/08 01:01:02;;;;;;;1.10;1.10;;;;;;;;;;5073776;28;20188;-55
2023/04/08 01:03:28;;;;;;;1.00;1.00;;;;;;;;;;5061051;28;20195;-55
2023/04/08 01:06:10;;;;;;;1.10;1.10;;;;;;;;;;5053229;28;20706;-55
2023/04/08 01:08:37;;;;;;;1.20;1.20;;;;;;;;;;5064168;28;20297;-56
2023/04/08 01:11:03;;;;;;;1.17;1.17;;;;;;;;;;5033831;28;20221;-56
2023/04/08 01:13:29;;;;;;;1.20;1.20;;;;;;;;;;5065332;28;20216;-55
2023/04/08 01:15:55;;;;;;;1.20;1.20;;;;;;;;;;5069177;28;20535;-55
2023/04/08 01:18:21;;;;;;;1.03;1.03;;;;;;;;;;5034555;28;20196;-56
2023/04/08 01:20:47;;;;;;;1.00;1.00;;;;;;;;;;5069670;28;20428;-56
2023/04/08 01:23:20;;;;;;;1.00;1.00;;;;;;;;;;5059364;28;20348;-55
2023/04/08 01:25:49;;;;;;;1.20;1.20;;;;;;;;;;5063614;28;20203;-55
2023/04/08 01:28:16;;;;;;;1.03;1.03;;;;;;;;;;5035945;28;20196;-61
2023/04/08 01:30:42;;;;;;;1.10;1.10;;;;;;;;;;5067776;28;20200;-56
2023/04/08 01:33:09;;;;;;;1.10;1.10;;;;;;;;;;5066334;28;20189;-55
2023/04/08 01:35:35;;;;;;;1.20;1.20;;;;;;;;;;5035206;28;20191;-55
2023/04/08 01:38:01;;;;;;;1.10;1.10;;;;;;;;;;5034845;28;20188;-55
2023/04/08 01:40:27;;;;;;;1.30;1.30;;;;;;;;;;5035265;28;20199;-55
2023/04/08 01:42:54;;;;;;;1.10;1.10;;;;;;;;;;5034908;28;20192;-55
2023/04/08 01:45:20;;;;;;;1.00;1.00;;;;;;;;;;5034085;28;20668;-55
2023/04/08 01:47:46;;;;;;;1.00;1.00;;;;;;;;;;5036345;28;20299;-57
2023/04/08 01:50:12;;;;;;;1.00;1.00;;;;;;;;;;5062677;28;20676;-55
2023/04/08 01:52:38;;;;;;;1.00;1.00;;;;;;;;;;5033914;28;20191;-55
2023/04/08 01:55:04;;;;;;;1.10;1.10;;;;;;;;;;5065898;28;20184;-55
2023/04/08 01:57:31;;;;;;;1.00;1.00;;;;;;;;;;5035437;28;20197;-55
2023/04/08 01:59:59;;;;;;;0.90;0.90;;;;;;;;;;5063265;28;20195;-55
2023/04/08 02:02:25;;;;;;;0.90;0.90;;;;;;;;;;5034804;28;20762;-55
2023/04/08 02:04:51;;;;;;;0.93;0.93;;;;;;;;;;5034724;28;20197;-55
2023/04/08 02:07:17;;;;;;;1.00;1.00;;;;;;;;;;5032891;28;20297;-55
2023/04/08 02:09:43;;;;;;;1.00;1.00;;;;;;;;;;5052335;28;20238;-55
2023/04/08 02:12:10;;;;;;;0.90;0.90;;;;;;;;;;5068910;28;20258;-55
2023/04/08 02:14:36;;;;;;;1.03;1.03;;;;;;;;;;5057845;28;20172;-55
2023/04/08 02:17:05;;;;;;;1.00;1.00;;;;;;;;;;5053994;28;20589;-55
2023/04/08 02:19:36;;;;;;;1.00;1.00;;;;;;;;;;5055249;28;20202;-55
2023/04/08 02:22:05;;;;;;;1.10;1.10;;;;;;;;;;5069257;28;20192;-55
2023/04/08 02:24:31;;;;;;;1.20;1.20;;;;;;;;;;5043219;28;20184;-55
2023/04/08 02:26:57;;;;;;;1.10;1.10;;;;;;;;;;5067932;28;20194;-55
2023/04/08 02:29:23;;;;;;;1.00;1.00;;;;;;;;;;5055925;28;20632;-55
2023/04/08 02:31:49;;;;;;;1.30;1.30;;;;;;;;;;5053080;28;20207;-55
2023/04/08 02:34:15;;;;;;;1.10;1.10;;;;;;;;;;5050097;28;20211;-55
2023/04/08 02:36:44;;;;;;;1.00;1.00;;;;;;;;;;5068468;28;20267;-55
2023/04/08 02:39:10;;;;;;;1.30;1.30;;;;;;;;;;5044440;28;20265;-56
2023/04/08 02:41:36;;;;;;;1.20;1.20;;;;;;;;;;5041029;28;20239;-55
2023/04/08 02:44:02;;;;;;;1.10;1.10;;;;;;;;;;5054469;28;20202;-55
2023/04/08 02:46:28;;;;;;;1.30;1.30;;;;;;;;;;5055433;28;20328;-56
2023/04/08 02:48:54;;;;;;;1.20;1.20;;;;;;;;;;5053340;28;20195;-55
2023/04/08 02:51:20;;;;;;;1.00;1.00;;;;;;;;;;5053912;28;20211;-55
2023/04/08 02:53:46;;;;;;;1.00;1.00;;;;;;;;;;5053337;28;20188;-55
2023/04/08 02:56:12;;;;;;;1.10;1.10;;;;;;;;;;5055884;28;20263;-55
2023/04/08 02:58:38;;;;;;;1.13;1.13;;;;;;;;;;5052371;28;20192;-55
2023/04/08 03:01:04;;;;;;;0.90;0.90;;;;;;;;;;5057033;28;20180;-55
2023/04/08 03:03:30;;;;;;;1.00;1.00;;;;;;;;;;5056486;28;20198;-55
2023/04/08 03:05:56;;;;;;;1.00;1.00;;;;;;;;;;5057330;28;20192;-55
2023/04/08 03:08:22;;;;;;;1.00;1.00;;;;;;;;;;5058195;28;20286;-55
2023/04/08 03:10:48;;;;;;;1.00;1.00;;;;;;;;;;5059879;28;20219;-55
2023/04/08 03:13:14;;;;;;;0.90;0.90;;;;;;;;;;5059165;28;20219;-55
2023/04/08 03:15:40;;;;;;;1.00;1.00;;;;;;;;;;5056507;28;20179;-55
2023/04/08 03:18:06;;;;;;;0.90;0.90;;;;;;;;;;5059141;28;20188;-55
2023/04/08 03:20:32;;;;;;;1.00;1.00;;;;;;;;;;5057859;28;20234;-55
2023/04/08 03:22:58;;;;;;;1.00;1.00;;;;;;;;;;5054983;28;20606;-55
2023/04/08 03:25:25;;;;;;;1.00;1.00;;;;;;;;;;5056701;28;20207;-55
2023/04/08 03:27:51;;;;;;;0.80;0.80;;;;;;;;;;5055769;28;20192;-55
2023/04/08 03:30:17;;;;;;;0.90;0.90;;;;;;;;;;5057192;28;20203;-55
2023/04/08 03:32:43;;;;;;;0.90;0.90;;;;;;;;;;5055710;28;20187;-55
2023/04/08 03:35:09;;;;;;;1.00;1.00;;;;;;;;;;5056914;28;20180;-55
2023/04/08 03:37:35;;;;;;;0.93;0.93;;;;;;;;;;5054801;28;20202;-55
2023/04/08 03:40:01;;;;;;;0.90;0.90;;;;;;;;;;5057371;28;20192;-55
2023/04/08 03:42:27;;;;;;;0.90;0.90;;;;;;;;;;5056758;28;20188;-55
2023/04/08 03:44:53;;;;;;;1.00;1.00;;;;;;;;;;5056347;28;20218;-55
2023/04/08 03:47:18;;;;;;;0.90;0.90;;;;;;;;;;5059725;28;20184;-55
2023/04/08 03:49:44;;;;;;;1.10;1.10;;;;;;;;;;5057887;28;20410;-55
2023/04/08 03:52:10;;;;;;;1.10;1.10;;;;;;;;;;5059866;28;20184;-55
2023/04/08 03:54:36;;;;;;;1.00;1.00;;;;;;;;;;5056714;28;20176;-55
2023/04/08 03:57:02;;;;;;;1.20;1.20;;;;;;;;;;5055996;28;20211;-56
2023/04/08 03:59:28;;;;;;;1.10;1.10;;;;;;;;;;5057133;28;20213;-55
2023/04/08 04:01:55;;;;;;;1.10;1.10;;;;;;;;;;5058517;28;20196;-55
2023/04/08 04:04:21;;;;;;;1.10;1.10;;;;;;;;;;5055812;28;20192;-55
2023/04/08 04:06:47;;;;;;;1.10;1.10;;;;;;;;;;5054234;28;20195;-54
2023/04/08 04:09:14;;;;;;;1.10;1.10;;;;;;;;;;5052653;28;20239;-55
2023/04/08 04:11:40;;;;;;;1.20;1.20;;;;;;;;;;5054020;28;20219;-55
2023/04/08 04:14:06;;;;;;;1.17;1.17;;;;;;;;;;5059775;28;20179;-56
2023/04/08 04:16:31;;;;;;;1.50;1.50;;;;;;;;;;5073450;28;20181;-56
2023/04/08 04:18:57;;;;;;;1.10;1.10;;;;;;;;;;5059461;28;20843;-55
2023/04/08 04:21:23;;;;;;;1.20;1.20;;;;;;;;;;5056874;28;20962;-55
2023/04/08 04:23:49;;;;;;;1.20;1.20;;;;;;;;;;5054098;28;20667;-55
2023/04/08 04:26:15;;;;;;;1.20;1.20;;;;;;;;;;5057543;28;20199;-55
2023/04/08 04:28:41;;;;;;;1.20;1.20;;;;;;;;;;5053452;28;20196;-55
2023/04/08 04:31:07;;;;;;;1.20;1.20;;;;;;;;;;5057709;28;20211;-55
2023/04/08 04:33:33;;;;;;;1.20;1.20;;;;;;;;;;5056646;28;20299;-55
2023/04/08 04:35:59;;;;;;;1.20;1.20;;;;;;;;;;5056771;28;20667;-56
2023/04/08 04:38:25;;;;;;;1.30;1.30;;;;;;;;;;5038763;28;20339;-55
2023/04/08 04:40:51;;;;;;;1.20;1.20;;;;;;;;;;5059433;28;20208;-55
2023/04/08 04:43:17;;;;;;;1.30;1.30;;;;;;;;;;5059749;28;20222;-55
2023/04/08 04:45:44;;;;;;;1.10;1.10;;;;;;;;;;5053192;28;20683;-55
2023/04/08 04:48:10;;;;;;;1.10;1.10;;;;;;;;;;5058671;28;20679;-54
2023/04/08 04:50:36;;;;;;;1.30;1.30;;;;;;;;;;5053743;28;20220;-55
2023/04/08 04:53:02;;;;;;;1.10;1.10;;;;;;;;;;5054038;28;20245;-54
2023/04/08 04:55:28;;;;;;;1.30;1.30;;;;;;;;;;5054510;28;20520;-55
2023/04/08 04:57:54;;;;;;;1.30;1.30;;;;;;;;;;5052096;28;20287;-55
2023/04/08 05:00:20;;;;;;;1.20;1.20;;;;;;;;;;5056367;28;20180;-55
2023/04/08 05:02:46;;;;;;;1.30;1.30;;;;;;;;;;5057242;28;20804;-55
2023/04/08 05:05:12;;;;;;;1.20;1.20;;;;;;;;;;5054980;28;20195;-55
2023/04/08 05:07:38;;;;;;;1.10;1.10;;;;;;;;;;5055349;28;20270;-54
2023/04/08 05:10:04;;;;;;;1.07;1.07;;;;;;;;;;5057971;28;20212;-56
2023/04/08 05:12:30;;;;;;;1.10;1.10;;;;;;;;;;5055597;28;20973;-55
2023/04/08 05:14:59;;;;;;;1.00;1.00;;;;;;;;;;5055515;28;20208;-55
2023/04/08 05:17:25;;;;;;;1.00;1.00;;;;;;;;;;5053924;28;20188;-56
2023/04/08 05:19:52;;;;;;;1.30;1.30;;;;;;;;;;5054874;28;20206;-55
2023/04/08 05:22:18;;;;;;;1.30;1.30;;;;;;;;;;5054806;28;20275;-55
2023/04/08 05:24:44;;;;;;;1.30;1.30;;;;;;;;;;5055738;28;20267;-55
2023/04/08 05:27:10;;;;;;;1.20;1.20;;;;;;;;;;5054606;28;20192;-55
2023/04/08 05:29:36;;;;;;;1.47;1.47;;;;;;;;;;5055048;28;20180;-55
2023/04/08 05:32:02;;;;;;;1.10;1.10;;;;;;;;;;5052517;28;20199;-55
2023/04/08 05:34:28;;;;;;;1.20;1.20;;;;;;;;;;5055928;28;20226;-55
2023/04/08 05:36:54;;;;;;;1.00;1.00;;;;;;;;;;5052611;28;20718;-54
2023/04/08 05:39:20;;;;;;;1.10;1.10;;;;;;;;;;5053561;28;20184;-55
2023/04/08 05:41:46;;;;;;;1.17;1.17;;;;;;;;;;5053352;28;20557;-55
2023/04/08 05:44:13;;;;;;;1.30;1.30;;;;;;;;;;5055093;28;20202;-55
2023/04/08 05:46:39;;;;;;;1.20;1.20;;;;;;;;;;5051385;28;20196;-55
2023/04/08 05:49:05;;;;;;;1.37;1.37;;;;;;;;;;5057154;28;20667;-57
2023/04/08 05:51:30;;;;;;;1.10;1.10;;;;;;;;;;5051637;28;20203;-55
2023/04/08 05:53:56;;;;;;;1.10;1.10;;;;;;;;;;5055403;28;20734;-55
2023/04/08 05:56:22;;;;;;;1.20;1.20;;;;;;;;;;5051778;28;20330;-55
2023/04/08 05:58:48;;;;;;;1.33;1.33;;;;;;;;;;5053238;28;20660;-55
2023/04/08 06:01:14;;;;;;;1.10;1.10;;;;;;;;;;5054406;28;20202;-55
2023/04/08 06:03:40;;;;;;;1.20;1.20;;;;;;;;;;5054152;28;20215;-55
2023/04/08 06:06:12;;;;;;;1.20;1.20;;;;;;;;;;5053162;28;20191;-55
2023/04/08 06:08:38;;;;;;;1.10;1.10;;;;;;;;;;5053628;28;20227;-55
2023/04/08 06:11:04;;;;;;;1.30;1.30;;;;;;;;;;5055184;28;20235;-55
2023/04/08 06:13:30;;;;;;;1.10;1.10;;;;;;;;;;5055205;28;20530;-54
2023/04/08 06:15:56;;;;;;;1.10;1.10;;;;;;;;;;5055756;28;20260;-55
2023/04/08 06:18:22;;;;;;;1.30;1.30;;;;;;;;;;5052497;28;20274;-57
2023/04/08 06:20:49;;;;;;;1.30;1.30;;;;;;;;;;5052861;28;20533;-55
2023/04/08 06:23:15;;;;;;;1.40;1.40;;;;;;;;;;5052661;28;20213;-55
2023/04/08 06:25:41;;;;;;;1.30;1.30;;;;;;;;;;5054810;28;20183;-55
2023/04/08 06:28:07;;;;;;;1.20;1.20;;;;;;;;;;5056794;28;20234;-55
2023/04/08 06:30:33;;;;;;;1.10;1.10;;;;;;;;;;5054642;28;20720;-55
2023/04/08 06:32:59;;;;;;;1.00;1.00;;;;;;;;;;5055654;28;20203;-55
2023/04/08 06:35:26;;;;;;;1.00;1.00;;;;;;;;;;5057138;28;20191;-55
2023/04/08 06:37:52;;;;;;;1.10;1.10;;;;;;;;;;5056731;28;20198;-56
2023/04/08 06:40:18;;;;;;;1.10;1.10;;;;;;;;;;5056682;28;20184;-55
2023/04/08 06:42:44;;;;;;;1.00;1.00;;;;;;;;;;5059752;28;20199;-55
2023/04/08 06:45:10;;;;;;;1.00;1.00;;;;;;;;;;5057007;28;20192;-55
2023/04/08 06:47:36;;;;;;;1.23;1.23;;;;;;;;;;5055321;28;20584;-55
2023/04/08 06:50:02;;;;;;;1.20;1.20;;;;;;;;;;5055352;28;20215;-55
2023/04/08 06:52:28;;;;;;;1.00;1.00;;;;;;;;;;5056642;28;20195;-55
2023/04/08 06:54:54;;;;;;;0.90;0.90;;;;;;;;;;5060706;28;20587;-55
2023/04/08 06:57:20;;;;;;;1.20;1.20;;;;;;;;;;5057387;28;20528;-55
2023/04/08 06:59:46;;;;;;;0.90;0.90;;;;;;;;;;5059475;28;20626;-55
2023/04/08 07:02:12;;;;;;;1.10;1.10;;;;;;;;;;5061107;28;20197;-55
2023/04/08 07:04:38;;;;;;;1.20;1.20;;;;;;;;;;5054061;28;20385;-55
2023/04/08 07:07:04;;;;;;;1.20;1.20;;;;;;;;;;5058548;28;20223;-55
2023/04/08 07:09:30;;;;;;;0.90;0.90;;;;;;;;;;5056136;28;21164;-55
2023/04/08 07:11:57;;;;;;;0.90;0.90;;;;;;;;;;5057720;28;20227;-55
2023/04/08 07:14:23;;;;;;;0.90;0.90;;;;;;;;;;5058491;28;20192;-55
2023/04/08 07:16:49;;;;;;;1.00;1.00;;;;;;;;;;5057218;28;20726;-55
2023/04/08 07:19:15;;;;;;;0.90;0.90;;;;;;;;;;5057756;28;20270;-55
2023/04/08 07:21:41;;;;;;;0.80;0.80;;;;;;;;;;5057954;28;20191;-55
2023/04/08 07:24:07;;;;;;;0.70;0.70;;;;;;;;;;5056155;28;20381;-55
2023/04/08 07:26:32;;;;;;;0.70;0.70;;;;;;;;;;5057682;28;20815;-55
2023/04/08 07:28:58;;;;;;;0.90;0.90;;;;;;;;;;5051818;28;20274;-55
2023/04/08 07:31:25;;;;;;;0.70;0.70;;;;;;;;;;5055167;28;20196;-55
2023/04/08 07:33:51;;;;;;;0.80;0.80;;;;;;;;;;5058309;28;20202;-55
2023/04/08 07:36:17;;;;;;;0.90;0.90;;;;;;;;;;5058858;28;20183;-56
2023/04/08 07:38:43;;;;;;;0.83;0.83;;;;;;;;;;5057464;28;20211;-55
2023/04/08 07:41:09;;;;;;;0.90;0.90;;;;;;;;;;5057825;28;20596;-55
2023/04/08 07:43:35;;;;;;;0.90;0.90;;;;;;;;;;5053540;28;20551;-55
2023/04/08 07:46:02;;;;;;;0.90;0.90;;;;;;;;;;5057581;28;20195;-55
2023/04/08 07:48:28;;;;;;;0.90;0.90;;;;;;;;;;5056970;28;20279;-55
2023/04/08 07:50:55;;;;;;;1.00;1.00;;;;;;;;;;5056211;28;20212;-55
2023/04/08 07:53:22;;;;;;;0.80;0.80;;;;;;;;;;5057885;28;20196;-56
2023/04/08 07:55:48;;;;;;;0.70;0.70;;;;;;;;;;5058801;28;20187;-55
2023/04/08 07:58:14;;;;;;;0.90;0.90;;;;;;;;;;5070144;28;20536;-55
2023/04/08 08:00:40;;;;;;;0.80;0.80;;;;;;;;;;5055474;28;20652;-55
2023/04/08 08:03:06;;;;;;;0.80;0.80;;;;;;;;;;5051048;28;20562;-55
2023/04/08 08:05:32;;;;;;;0.80;0.80;;;;;;;;;;5046230;28;20231;-55
2023/04/08 08:07:58;;;;;;;0.90;0.90;;;;;;;;;;5045159;28;20234;-55
2023/04/08 08:10:24;;;;;;;0.80;0.80;;;;;;;;;;5058360;28;20224;-55
2023/04/08 08:12:50;;;;;;;0.80;0.80;;;;;;;;;;5054719;28;20191;-55
2023/04/08 08:15:16;;;;;;;0.80;0.80;;;;;;;;;;5057925;28;20188;-56
2023/04/08 08:17:42;;;;;;;0.80;0.80;;;;;;;;;;5056320;28;20176;-56
2023/04/08 08:20:08;;;;;;;0.70;0.70;;;;;;;;;;5060747;28;20195;-55
2023/04/08 08:22:34;;;;;;;0.70;0.70;;;;;;;;;;5059905;28;20187;-56
2023/04/08 08:25:00;;;;;;;0.80;0.80;;;;;;;;;;5056988;28;20192;-56
2023/04/08 08:27:26;;;;;;;0.70;0.70;;;;;;;;;;5055657;28;20199;-56
2023/04/08 08:29:52;;;;;;;0.70;0.70;;;;;;;;;;5054776;28;20183;-56
2023/04/08 08:32:18;;;;;;;0.80;0.80;;;;;;;;;;5056722;28;20185;-57
2023/04/08 08:34:44;;;;;;;0.90;0.90;;;;;;;;;;5053680;28;20230;-56
2023/04/08 08:37:10;;;;;;;0.93;0.93;;;;;;;;;;5056169;28;20663;-56
2023/04/08 08:39:36;;;;;;;0.90;0.90;;;;;;;;;;5054834;28;20275;-56
2023/04/08 08:42:02;;;;;;;0.90;0.90;;;;;;;;;;5056298;28;20180;-56
2023/04/08 08:44:29;;;;;;;1.00;1.00;;;;;;;;;;5056686;28;20226;-55
2023/04/08 08:46:55;;;;;;;1.20;1.20;;;;;;;;;;5055230;28;20203;-56
2023/04/08 08:49:21;;;;;;;1.10;1.10;;;;;;;;;;5042843;28;20188;-55
2023/04/08 08:51:47;;;;;;;1.00;1.00;;;;;;;;;;5055588;28;22077;-56
2023/04/08 08:54:14;;;;;;;1.10;1.10;;;;;;;;;;5058648;28;20660;-56
2023/04/08 08:56:42;;;;;;;1.10;1.10;;;;;;;;;;5054857;28;20318;-56
2023/04/08 08:59:08;;;;;;;1.10;1.10;;;;;;;;;;5056481;28;20230;-55
2023/04/08 09:01:37;;;;;;;1.10;1.10;;;;;;;;;;5056436;28;20183;-55
2023/04/08 09:04:06;;;;;;;1.10;1.10;;;;;;;;;;5057171;28;20202;-56
2023/04/08 09:06:33;;;;;;;1.20;1.20;;;;;;;;;;5055169;28;20195;-56
2023/04/08 09:08:58;;;;;;;1.20;1.20;;;;;;;;;;5056552;28;20236;-55
2023/04/08 09:11:25;;;;;;;1.10;1.10;;;;;;;;;;5054790;28;20744;-55
2023/04/08 09:13:51;;;;;;;1.00;1.00;;;;;;;;;;5070105;28;20201;-55
2023/04/08 09:16:17;;;;;;;1.00;1.00;;;;;;;;;;5058007;28;20771;-56
2023/04/08 09:18:44;;;;;;;1.20;1.20;;;;;;;;;;5053918;28;20195;-56
2023/04/08 09:21:11;;;;;;;1.00;1.00;;;;;;;;;;5056020;28;20201;-56
2023/04/08 09:23:42;;;;;;;1.10;1.10;;;;;;;;;;5054697;28;20184;-56
2023/04/08 09:26:13;;;;;;;1.00;1.00;;;;;;;;;;5058429;28;20198;-55
2023/04/08 09:28:39;;;;;;;1.00;1.00;;;;;;;;;;5055965;28;20214;-56
2023/04/08 09:31:24;;;;;;;1.00;1.00;;;;;;;;;;5072216;28;20219;-56
2023/04/08 09:33:50;;;;;;;1.27;1.27;;;;;;;;;;5053183;28;20270;-56
2023/04/08 09:36:17;;;;;;;1.00;1.00;;;;;;;;;;5059997;28;20640;-54
2023/04/08 09:38:43;;;;;;;1.00;1.00;;;;;;;;;;5057997;28;20190;-56
2023/04/08 09:41:09;;;;;;;1.00;1.00;;;;;;;;;;5059795;28;20188;-56
2023/04/08 09:43:41;;;;;;;1.10;1.10;;;;;;;;;;5060020;28;20199;-56
2023/04/08 09:46:10;;;;;;;1.10;1.10;;;;;;;;;;5060239;28;20199;-56
2023/04/08 09:48:37;;;;;;;1.00;1.00;;;;;;;;;;5074013;28;20200;-56
2023/04/08 09:51:03;;;;;;;0.90;0.90;;;;;;;;;;5052862;28;20571;-55
2023/04/08 09:53:36;;;;;;;1.27;1.27;;;;;;;;;;5057312;28;20187;-55
2023/04/08 09:56:02;;;;;;;1.10;1.10;;;;;;;;;;5055621;28;20244;-56
2023/04/08 09:58:28;;;;;;;1.20;1.20;;;;;;;;;;5068504;28;20196;-55
2023/04/08 10:00:54;;;;;;;1.30;1.30;;;;;;;;;;5057443;28;20308;-56
2023/04/08 10:03:27;;;;;;;1.20;1.20;;;;;;;;;;5055939;28;20412;-57
2023/04/08 10:05:53;;;;;;;1.10;1.10;;;;;;;;;;5056520;28;20234;-56
2023/04/08 10:08:19;;;;;;;1.07;1.07;;;;;;;;;;5058851;28;20289;-58
2023/04/08 10:10:45;;;;;;;1.20;1.20;;;;;;;;;;5055796;28;20203;-56
2023/04/08 10:13:11;;;;;;;1.20;1.20;;;;;;;;;;5069946;28;20183;-56
2023/04/08 10:15:38;;;;;;;1.20;1.20;;;;;;;;;;5053932;28;20580;-56
2023/04/08 10:18:04;;;;;;;1.30;1.30;;;;;;;;;;5054824;28;20192;-56
2023/04/08 10:20:36;;;;;;;1.00;1.00;;;;;;;;;;5054639;28;20538;-56
2023/04/08 10:23:06;;;;;;;1.20;1.20;;;;;;;;;;5059318;28;20199;-56
2023/04/08 10:25:36;;;;;;;1.10;1.10;;;;;;;;;;5042574;28;20569;-55
2023/04/08 10:28:11;;;;;;;1.30;1.30;;;;;;;;;;5057398;28;20485;-56
2023/04/08 10:30:43;;;;;;;1.10;1.10;;;;;;;;;;5056881;28;20218;-56
2023/04/08 10:33:20;;;;;;;1.10;1.10;;;;;;;;;;5056612;28;20229;-56
2023/04/08 10:35:47;;;;;;;1.00;1.00;;;;;;;;;;5055906;28;20384;-56
2023/04/08 10:38:14;;;;;;;1.17;1.17;;;;;;;;;;5054778;28;20571;-56
2023/04/08 10:40:43;;;;;;;1.10;1.10;;;;;;;;;;5055898;28;20249;-56
2023/04/08 10:43:10;;;;;;;1.03;1.03;;;;;;;;;;5056432;28;20707;-56
2023/04/08 10:45:36;;;;;;;1.10;1.10;;;;;;;;;;5055034;28;20188;-57
2023/04/08 10:48:24;;;;;;;1.10;1.10;;;;;;;;;;5058437;28;20576;-56
2023/04/08 10:50:56;;;;;;;1.00;1.00;;;;;;;;;;5053590;28;20212;-55
2023/04/08 10:53:35;;;;;;;0.80;0.80;;;;;;;;;;5052558;28;20866;-56
2023/04/08 10:56:07;;;;;;;0.80;0.80;;;;;;;;;;5056238;28;20191;-59
2023/04/08 10:58:34;;;;;;;0.80;0.80;;;;;;;;;;5034759;28;20209;-56
2023/04/08 11:01:04;;;;;;;1.00;1.00;;;;;;;;;;5058166;28;20682;-56
2023/04/08 11:03:32;;;;;;;1.00;1.00;;;;;;;;;;5056040;28;20188;-56
2023/04/08 11:05:58;;;;;;;0.90;0.90;;;;;;;;;;5057669;28;20193;-55
2023/04/08 11:08:28;;;;;;;0.80;0.80;;;;;;;;;;5036851;28;20232;-55
2023/04/08 11:10:54;;;;;;;0.80;0.80;;;;;;;;;;5057792;28;20246;-56
2023/04/08 11:13:20;;;;;;;0.90;0.90;;;;;;;;;;5041476;28;20202;-56
2023/04/08 11:15:46;;;;;;;0.80;0.80;;;;;;;;;;5056309;28;20188;-56
2023/04/08 11:18:12;;;;;;;0.70;0.70;;;;;;;;;;5056845;28;20334;-55
2023/04/08 11:20:39;;;;;;;0.80;0.80;;;;;;;;;;5056777;28;20544;-55
2023/04/08 11:23:12;;;;;;;1.10;1.10;;;;;;;;;;5058973;28;20341;-56
2023/04/08 11:25:38;;;;;;;1.00;1.00;;;;;;;;;;5063071;28;20188;-55
2023/04/08 11:28:04;;;;;;;0.90;0.90;;;;;;;;;;5062264;28;20211;-55
2023/04/08 11:30:30;;;;;;;0.93;0.93;;;;;;;;;;5074947;28;20211;-55
2023/04/08 11:32:56;;;;;;;0.90;0.90;;;;;;;;;;5059219;28;20315;-55
2023/04/08 11:35:22;;;;;;;1.10;1.10;;;;;;;;;;5062226;28;20191;-56
2023/04/08 11:37:48;;;;;;;0.80;0.80;;;;;;;;;;5061560;28;20652;-56
2023/04/08 11:40:19;;;;;;;1.07;1.07;;;;;;;;;;5063833;28;20187;-56
2023/04/08 11:42:45;;;;;;;1.08;1.08;;;;;;;;;;5058603;28;20196;-56
2023/04/08 11:45:11;;;;;;;0.80;0.80;;;;;;;;;;5058758;28;20203;-56
2023/04/08 11:47:37;;;;;;;0.70;0.70;;;;;;;;;;5057821;28;20192;-56
2023/04/08 11:50:04;;;;;;;0.90;0.90;;;;;;;;;;5058796;28;20206;-56
2023/04/08 11:52:49;;;;;;;0.77;0.77;;;;;;;;;;5074899;28;20237;-56
2023/04/08 11:55:41;;;;;;;1.00;1.00;;;;;;;;;;5059925;28;20222;-56
2023/04/08 11:58:07;;;;;;;1.00;1.00;;;;;;;;;;5050154;28;20961;-56
2023/04/08 12:00:33;;;;;;;1.10;1.10;;;;;;;;;;5060522;28;20190;-56
2023/04/08 12:02:59;;;;;;;1.23;1.23;;;;;;;;;;5056193;28;20282;-56
2023/04/08 12:05:25;;;;;;;1.15;1.15;;;;;;;;;;5056024;28;20228;-56
2023/04/08 12:07:51;;;;;;;1.30;1.30;;;;;;;;;;5058720;28;20207;-56
2023/04/08 12:10:17;;;;;;;1.40;1.40;;;;;;;;;;5058165;28;20207;-55
2023/04/08 12:12:43;;;;;;;1.30;1.30;;;;;;;;;;5054296;28;20188;-56
2023/04/08 12:15:10;;;;;;;1.17;1.17;;;;;;;;;;5057196;28;20263;-56
2023/04/08 12:17:37;;;;;;;1.20;1.20;;;;;;;;;;5060884;28;20184;-56
2023/04/08 12:20:03;;;;;;;1.20;1.20;;;;;;;;;;5058431;28;20222;-56
2023/04/08 12:22:29;;;;;;;1.20;1.20;;;;;;;;;;5061373;28;20190;-56
2023/04/08 12:24:55;;;;;;;1.30;1.30;;;;;;;;;;5061645;28;20437;-56
2023/04/08 12:27:21;;;;;;;1.33;1.33;;;;;;;;;;5061087;28;20203;-56
2023/04/08 12:29:48;;;;;;;1.00;1.00;;;;;;;;;;5053811;28;20491;-56
2023/04/08 12:32:14;;;;;;;1.20;1.20;;;;;;;;;;5056555;28;20586;-57
2023/04/08 12:34:40;;;;;;;0.90;0.90;;;;;;;;;;5057226;28;20184;-56
2023/04/08 12:37:06;;;;;;;0.80;0.80;;;;;;;;;;5056134;28;20403;-55
2023/04/08 12:39:32;;;;;;;1.10;1.10;;;;;;;;;;5060244;28;20187;-55
2023/04/08 12:41:58;;;;;;;0.90;0.90;;;;;;;;;;5051818;28;20192;-57
2023/04/08 12:44:24;;;;;;;0.90;0.90;;;;;;;;;;5056957;28;20589;-55
2023/04/08 12:46:50;;;;;;;1.10;1.10;;;;;;;;;;5056309;28;20199;-55
2023/04/08 12:49:16;;;;;;;1.10;1.10;;;;;;;;;;5056775;28;20180;-55
2023/04/08 12:51:42;;;;;;;1.10;1.10;;;;;;;;;;5059575;28;20208;-55
2023/04/08 12:54:08;;;;;;;1.20;1.20;;;;;;;;;;5057786;28;20188;-55
2023/04/08 12:56:34;;;;;;;1.30;1.30;;;;;;;;;;5059537;28;20291;-55
2023/04/08 12:59:00;;;;;;;1.30;1.30;;;;;;;;;;5059858;28;20186;-54
2023/04/08 13:01:26;;;;;;;1.23;1.23;;;;;;;;;;5059413;28;20615;-56
2023/04/08 13:03:52;;;;;;;1.10;1.10;;;;;;;;;;5057609;28;20200;-54
2023/04/08 13:06:19;;;;;;;1.10;1.10;;;;;;;;;;5055743;28;20212;-54
2023/04/08 13:08:46;;;;;;;1.20;1.20;;;;;;;;;;5056284;28;20402;-55
2023/04/08 13:11:12;;;;;;;1.10;1.10;;;;;;;;;;5044469;28;20222;-55
2023/04/08 13:13:38;;;;;;;1.07;1.07;;;;;;;;;;5069973;28;20731;-56
2023/04/08 13:16:04;;;;;;;1.20;1.20;;;;;;;;;;5061567;28;20607;-56
2023/04/08 13:18:30;;;;;;;0.90;0.90;;;;;;;;;;5054914;28;20192;-57
2023/04/08 13:20:57;;;;;;;1.10;1.10;;;;;;;;;;5057294;28;20233;-56
2023/04/08 13:23:23;;;;;;;1.00;1.00;;;;;;;;;;5055995;28;20286;-55
2023/04/08 13:25:49;;;;;;;1.20;1.20;;;;;;;;;;5058811;28;20286;-55
2023/04/08 13:28:15;;;;;;;1.10;1.10;;;;;;;;;;5058066;28;20562;-55
2023/04/08 13:30:41;;;;;;;1.20;1.20;;;;;;;;;;5058229;28;20210;-56
2023/04/08 13:33:07;;;;;;;1.00;1.00;;;;;;;;;;5054736;28;20928;-56
2023/04/08 13:35:33;;;;;;;1.00;1.00;;;;;;;;;;5057541;28;20192;-56
2023/04/08 13:37:59;;;;;;;1.10;1.10;;;;;;;;;;5057767;28;20673;-56
2023/04/08 13:40:26;;;;;;;1.10;1.10;;;;;;;;;;5056973;28;20196;-56
2023/04/08 13:42:52;;;;;;;1.10;1.10;;;;;;;;;;5056333;28;20390;-55
2023/04/08 13:45:19;;;;;;;1.10;1.10;;;;;;;;;;5054343;28;20188;-56
2023/04/08 13:47:45;;;;;;;1.00;1.00;;;;;;;;;;5055493;28;20199;-55
2023/04/08 13:50:11;;;;;;;1.20;1.20;;;;;;;;;;5053754;28;20256;-57
2023/04/08 13:52:37;;;;;;;1.00;1.00;;;;;;;;;;5056905;28;20191;-55
2023/04/08 13:55:03;;;;;;;1.23;1.23;;;;;;;;;;5058656;28;20184;-56
2023/04/08 13:57:29;;;;;;;1.20;1.20;;;;;;;;;;5059605;28;20192;-55
2023/04/08 13:59:55;;;;;;;1.00;1.00;;;;;;;;;;5053488;28;20187;-56
2023/04/08 14:02:22;;;;;;;1.20;1.20;;;;;;;;;;5055540;28;20644;-55
2023/04/08 14:04:48;;;;;;;1.20;1.20;;;;;;;;;;5055080;28;20671;-55
2023/04/08 14:07:14;;;;;;;1.00;1.00;;;;;;;;;;5057354;28;20194;-56
2023/04/08 14:09:40;;;;;;;1.13;1.13;;;;;;;;;;5051054;28;21836;-56
2023/04/08 14:12:06;;;;;;;1.00;1.00;;;;;;;;;;5055689;28;20691;-56
2023/04/08 14:14:31;;;;;;;1.00;1.00;;;;;;;;;;5053766;28;20212;-56
2023/04/08 14:16:57;;;;;;;0.90;0.90;;;;;;;;;;5055022;28;20554;-55
2023/04/08 14:19:23;;;;;;;1.10;1.10;;;;;;;;;;5057043;28;20184;-55
2023/04/08 14:21:50;;;;;;;1.07;1.07;;;;;;;;;;5056750;28;20206;-55
2023/04/08 14:24:16;;;;;;;1.00;1.00;;;;;;;;;;5054642;28;20205;-55
2023/04/08 14:26:42;;;;;;;1.00;1.00;;;;;;;;;;5055925;28;20191;-56
2023/04/08 14:29:08;;;;;;;1.20;1.20;;;;;;;;;;5056334;28;20275;-55
2023/04/08 14:31:34;;;;;;;1.00;1.00;;;;;;;;;;5056149;28;20212;-55
2023/04/08 14:34:00;;;;;;;1.10;1.10;;;;;;;;;;5054944;28;20538;-56
2023/04/08 14:36:26;;;;;;;1.07;1.07;;;;;;;;;;5071794;28;20550;-56
2023/04/08 14:38:52;;;;;;;1.00;1.00;;;;;;;;;;5056726;28;20740;-54